sensor_id;sensor_type;location;lat;lon;timestamp;pressure;altitude;pressure_sealevel;temperature;humidity
77879;BME280;67071;51.144;17.050;2023-03-19T00:02:38;100306.96;;;6.53;48.31
77879;BME280;67071;51.144;17.050;2023-03-19T00:05:56;100318.30;;;6.39;48.48
77879;BME280;67071;51.144;17.050;2023-03-19T00:09:11;100315.53;;;6.25;48.66
77879;BME280;67071;51.144;17.050;2023-03-19T00:12:25;100314.70;;;6.16;48.84
77879;BME280;67071;51.144;17.050;2023-03-19T00:15:40;100317.08;;;6.07;48.99
77879;BME280;67071;51.144;17.050;2023-03-19T00:18:56;100313.00;;;5.96;49.13
77879;BME280;67071;51.144;17.050;2023-03-19T00:22:13;100333.16;;;5.82;49.27
77879;BME280;67071;51.144;17.050;2023-03-19T00:25:28;100336.95;;;5.70;49.43
77879;BME280;67071;51.144;17.050;2023-03-19T00:28:43;100332.93;;;5.58;49.60
77879;BME280;67071;51.144;17.050;2023-03-19T00:31:57;100324.58;;;5.43;49.74
77879;BME280;67071;51.144;17.050;2023-03-19T00:35:12;100321.69;;;5.33;49.90
77879;BME280;67071;51.144;17.050;2023-03-19T00:38:28;100325.16;;;5.25;50.04
77879;BME280;67071;51.144;17.050;2023-03-19T00:41:49;100322.84;;;5.17;50.19
77879;BME280;67071;51.144;17.050;2023-03-19T00:45:05;100322.42;;;5.05;50.35
77879;BME280;67071;51.144;17.050;2023-03-19T00:48:20;100318.48;;;4.96;50.52
77879;BME280;67071;51.144;17.050;2023-03-19T00:51:44;100315.41;;;4.84;50.70
77879;BME280;67071;51.144;17.050;2023-03-19T00:54:59;100309.49;;;4.79;50.90
77879;BME280;67071;51.144;17.050;2023-03-19T00:58:14;100304.95;;;4.74;51.08
77879;BME280;67071;51.144;17.050;2023-03-19T01:01:28;100302.21;;;4.66;51.25
77879;BME280;67071;51.144;17.050;2023-03-19T01:04:49;100300.67;;;4.58;51.41
77879;BME280;67071;51.144;17.050;2023-03-19T01:08:02;100303.25;;;4.53;51.56
77879;BME280;67071;51.144;17.050;2023-03-19T01:11:18;100302.67;;;4.45;51.69
77879;BME280;67071;51.144;17.050;2023-03-19T01:14:32;100295.66;;;4.38;51.84
77879;BME280;67071;51.144;17.050;2023-03-19T01:17:47;100290.53;;;4.31;51.98
77879;BME280;67071;51.144;17.050;2023-03-19T01:21:02;100299.20;;;4.24;52.13
77879;BME280;67071;51.144;17.050;2023-03-19T01:24:20;100298.13;;;4.19;52.25
77879;BME280;67071;51.144;17.050;2023-03-19T01:27:37;100301.32;;;4.13;52.38
77879;BME280;67071;51.144;17.050;2023-03-19T01:30:52;100296.29;;;4.05;52.52
77879;BME280;67071;51.144;17.050;2023-03-19T01:34:06;100296.45;;;4.01;52.64
77879;BME280;67071;51.144;17.050;2023-03-19T01:37:23;100294.18;;;3.95;52.76
77879;BME280;67071;51.144;17.050;2023-03-19T01:40:43;100294.27;;;3.89;52.89
77879;BME280;67071;51.144;17.050;2023-03-19T01:43:58;100283.64;;;3.82;53.02
77879;BME280;67071;51.144;17.050;2023-03-19T01:47:36;100294.34;;;3.76;53.15
77879;BME280;67071;51.144;17.050;2023-03-19T01:50:54;100294.17;;;3.75;53.29
77879;BME280;67071;51.144;17.050;2023-03-19T01:54:13;100291.98;;;3.78;53.44
77879;BME280;67071;51.144;17.050;2023-03-19T01:57:30;100294.42;;;3.79;53.56
77879;BME280;67071;51.144;17.050;2023-03-19T02:00:48;100289.00;;;3.82;53.68
77879;BME280;67071;51.144;17.050;2023-03-19T02:04:06;100299.12;;;3.89;53.79
77879;BME280;67071;51.144;17.050;2023-03-19T02:07:20;100301.95;;;3.94;53.91
77879;BME280;67071;51.144;17.050;2023-03-19T02:10:36;100300.44;;;3.98;54.01
77879;BME280;67071;51.144;17.050;2023-03-19T02:13:50;100303.37;;;4.03;54.08
77879;BME280;67071;51.144;17.050;2023-03-19T02:17:08;100301.45;;;4.06;54.16
77879;BME280;67071;51.144;17.050;2023-03-19T02:27:20;100310.59;;;4.14;54.40
77879;BME280;67071;51.144;17.050;2023-03-19T02:30:36;100304.31;;;4.14;54.46
77879;BME280;67071;51.144;17.050;2023-03-19T02:37:38;100300.19;;;4.15;54.59
77879;BME280;67071;51.144;17.050;2023-03-19T02:41:00;100299.88;;;4.14;54.66
77879;BME280;67071;51.144;17.050;2023-03-19T02:44:19;100305.83;;;4.16;54.74
77879;BME280;67071;51.144;17.050;2023-03-19T02:47:33;100303.55;;;4.16;54.79
77879;BME280;67071;51.144;17.050;2023-03-19T02:50:48;100313.35;;;4.16;54.86
77879;BME280;67071;51.144;17.050;2023-03-19T02:54:03;100317.30;;;4.14;54.93
77879;BME280;67071;51.144;17.050;2023-03-19T02:57:18;100314.34;;;4.13;55.00
77879;BME280;67071;51.144;17.050;2023-03-19T03:00:39;100321.16;;;4.12;55.08
77879;BME280;67071;51.144;17.050;2023-03-19T03:03:55;100313.69;;;4.08;55.15
77879;BME280;67071;51.144;17.050;2023-03-19T03:07:10;100311.58;;;4.04;55.22
77879;BME280;67071;51.144;17.050;2023-03-19T03:10:29;100309.58;;;4.00;55.28
77879;BME280;67071;51.144;17.050;2023-03-19T03:13:44;100313.94;;;3.92;55.36
77879;BME280;67071;51.144;17.050;2023-03-19T03:17:01;100312.38;;;3.84;55.42
77879;BME280;67071;51.144;17.050;2023-03-19T03:20:18;100314.99;;;3.76;55.50
77879;BME280;67071;51.144;17.050;2023-03-19T03:23:33;100314.09;;;3.73;55.60
77879;BME280;67071;51.144;17.050;2023-03-19T03:26:47;100326.08;;;3.70;55.69
77879;BME280;67071;51.144;17.050;2023-03-19T03:30:07;100322.22;;;3.66;55.78
77879;BME280;67071;51.144;17.050;2023-03-19T03:33:24;100321.70;;;3.58;55.87
77879;BME280;67071;51.144;17.050;2023-03-19T03:36:41;100324.27;;;3.53;55.97
77879;BME280;67071;51.144;17.050;2023-03-19T03:39:55;100331.13;;;3.49;56.07
77879;BME280;67071;51.144;17.050;2023-03-19T03:43:10;100327.69;;;3.42;56.16
77879;BME280;67071;51.144;17.050;2023-03-19T03:46:24;100324.39;;;3.34;56.26
77879;BME280;67071;51.144;17.050;2023-03-19T03:49:39;100328.28;;;3.29;56.37
77879;BME280;67071;51.144;17.050;2023-03-19T03:53:05;100321.84;;;3.24;56.48
77879;BME280;67071;51.144;17.050;2023-03-19T03:56:20;100324.84;;;3.22;56.61
77879;BME280;67071;51.144;17.050;2023-03-19T03:59:35;100321.08;;;3.17;56.70
77879;BME280;67071;51.144;17.050;2023-03-19T04:02:50;100318.05;;;3.14;56.84
77879;BME280;67071;51.144;17.050;2023-03-19T04:06:13;100323.58;;;3.15;56.97
77879;BME280;67071;51.144;17.050;2023-03-19T04:09:30;100320.48;;;3.15;57.09
77879;BME280;67071;51.144;17.050;2023-03-19T04:12:45;100320.90;;;3.15;57.21
77879;BME280;67071;51.144;17.050;2023-03-19T04:16:00;100322.75;;;3.15;57.33
77879;BME280;67071;51.144;17.050;2023-03-19T04:19:15;100321.77;;;3.13;57.42
77879;BME280;67071;51.144;17.050;2023-03-19T04:22:34;100316.29;;;3.13;57.51
77879;BME280;67071;51.144;17.050;2023-03-19T04:25:47;100320.47;;;3.18;57.60
77879;BME280;67071;51.144;17.050;2023-03-19T04:29:07;100319.85;;;3.25;57.72
77879;BME280;67071;51.144;17.050;2023-03-19T04:32:24;100317.56;;;3.29;57.80
77879;BME280;67071;51.144;17.050;2023-03-19T04:35:43;100317.84;;;3.30;57.89
77879;BME280;67071;51.144;17.050;2023-03-19T04:38:58;100317.34;;;3.31;57.99
77879;BME280;67071;51.144;17.050;2023-03-19T04:42:12;100309.17;;;3.31;58.08
77879;BME280;67071;51.144;17.050;2023-03-19T04:45:30;100311.41;;;3.34;58.16
77879;BME280;67071;51.144;17.050;2023-03-19T04:48:44;100307.42;;;3.40;58.25
77879;BME280;67071;51.144;17.050;2023-03-19T04:52:00;100316.48;;;3.48;58.34
77879;BME280;67071;51.144;17.050;2023-03-19T04:55:20;100312.70;;;3.56;58.42
77879;BME280;67071;51.144;17.050;2023-03-19T04:58:35;100311.63;;;3.66;58.50
77879;BME280;67071;51.144;17.050;2023-03-19T05:01:54;100305.13;;;3.73;58.59
77879;BME280;67071;51.144;17.050;2023-03-19T05:05:09;100312.02;;;3.81;58.65
77879;BME280;67071;51.144;17.050;2023-03-19T05:08:47;100307.57;;;3.90;58.73
77879;BME280;67071;51.144;17.050;2023-03-19T05:12:02;100309.50;;;3.92;58.78
77879;BME280;67071;51.144;17.050;2023-03-19T05:15:17;100311.16;;;3.98;58.82
77879;BME280;67071;51.144;17.050;2023-03-19T05:18:32;100324.23;;;4.06;58.84
77879;BME280;67071;51.144;17.050;2023-03-19T05:21:56;100319.64;;;4.16;58.85
77879;BME280;67071;51.144;17.050;2023-03-19T05:25:09;100327.25;;;4.25;58.85
77879;BME280;67071;51.144;17.050;2023-03-19T05:28:24;100330.18;;;4.29;58.85
77879;BME280;67071;51.144;17.050;2023-03-19T05:31:38;100324.41;;;4.40;58.86
77879;BME280;67071;51.144;17.050;2023-03-19T05:35:10;100327.30;;;4.54;58.88
77879;BME280;67071;51.144;17.050;2023-03-19T05:38:23;100326.81;;;4.68;58.89
77879;BME280;67071;51.144;17.050;2023-03-19T05:41:38;100322.73;;;4.83;58.92
77879;BME280;67071;51.144;17.050;2023-03-19T05:44:52;100323.77;;;4.99;58.93
77879;BME280;67071;51.144;17.050;2023-03-19T05:48:08;100325.05;;;5.14;58.94
77879;BME280;67071;51.144;17.050;2023-03-19T05:51:23;100323.85;;;5.33;58.96
77879;BME280;67071;51.144;17.050;2023-03-19T05:54:48;100327.16;;;5.52;58.94
77879;BME280;67071;51.144;17.050;2023-03-19T05:58:04;100334.34;;;5.80;58.90
77879;BME280;67071;51.144;17.050;2023-03-19T06:01:21;100331.82;;;6.10;58.86
77879;BME280;67071;51.144;17.050;2023-03-19T06:04:36;100339.30;;;6.31;58.80
77879;BME280;67071;51.144;17.050;2023-03-19T06:07:51;100337.45;;;6.48;58.72
77879;BME280;67071;51.144;17.050;2023-03-19T06:11:05;100336.54;;;6.67;58.63
77879;BME280;67071;51.144;17.050;2023-03-19T06:14:24;100340.72;;;6.86;58.48
77879;BME280;67071;51.144;17.050;2023-03-19T06:17:41;100336.20;;;6.99;58.30
77879;BME280;67071;51.144;17.050;2023-03-19T06:20:58;100339.69;;;7.17;58.09
77879;BME280;67071;51.144;17.050;2023-03-19T06:24:12;100353.32;;;7.37;57.88
77879;BME280;67071;51.144;17.050;2023-03-19T06:27:47;100348.40;;;7.54;57.62
77879;BME280;67071;51.144;17.050;2023-03-19T06:31:02;100352.79;;;7.70;57.37
77879;BME280;67071;51.144;17.050;2023-03-19T06:34:17;100356.43;;;7.83;57.11
77879;BME280;67071;51.144;17.050;2023-03-19T06:37:32;100355.84;;;8.06;56.83
77879;BME280;67071;51.144;17.050;2023-03-19T06:40:47;100342.78;;;8.19;56.55
77879;BME280;67071;51.144;17.050;2023-03-19T06:44:03;100354.53;;;8.32;56.24
77879;BME280;67071;51.144;17.050;2023-03-19T06:47:19;100364.95;;;8.48;55.95
77879;BME280;67071;51.144;17.050;2023-03-19T06:50:36;100364.52;;;8.63;55.64
77879;BME280;67071;51.144;17.050;2023-03-19T06:53:54;100369.05;;;8.87;55.30
77879;BME280;67071;51.144;17.050;2023-03-19T06:57:10;100364.66;;;8.99;55.00
77879;BME280;67071;51.144;17.050;2023-03-19T07:00:25;100365.59;;;9.15;54.69
77879;BME280;67071;51.144;17.050;2023-03-19T07:03:47;100364.72;;;9.30;54.38
77879;BME280;67071;51.144;17.050;2023-03-19T07:07:04;100363.18;;;9.42;54.05
77879;BME280;67071;51.144;17.050;2023-03-19T07:10:22;100363.24;;;9.54;53.73
77879;BME280;67071;51.144;17.050;2023-03-19T07:13:37;100363.16;;;9.70;53.41
77879;BME280;67071;51.144;17.050;2023-03-19T07:16:51;100367.54;;;9.86;53.09
77879;BME280;67071;51.144;17.050;2023-03-19T07:20:07;100370.57;;;10.03;52.78
77879;BME280;67071;51.144;17.050;2023-03-19T07:23:23;100379.70;;;10.22;52.50
77879;BME280;67071;51.144;17.050;2023-03-19T07:26:38;100384.08;;;10.38;52.20
77879;BME280;67071;51.144;17.050;2023-03-19T07:29:54;100370.55;;;10.61;51.92
77879;BME280;67071;51.144;17.050;2023-03-19T07:33:09;100370.16;;;10.81;51.62
77879;BME280;67071;51.144;17.050;2023-03-19T07:36:25;100366.35;;;10.95;51.30
77879;BME280;67071;51.144;17.050;2023-03-19T07:39:45;100376.21;;;11.17;50.99
77879;BME280;67071;51.144;17.050;2023-03-19T07:43:03;100384.95;;;11.49;50.72
77879;BME280;67071;51.144;17.050;2023-03-19T07:46:17;100390.87;;;11.63;50.45
77879;BME280;67071;51.144;17.050;2023-03-19T07:49:32;100380.82;;;11.79;50.10
77879;BME280;67071;51.144;17.050;2023-03-19T07:52:47;100383.90;;;12.14;49.77
77879;BME280;67071;51.144;17.050;2023-03-19T07:56:07;100385.98;;;12.29;49.43
77879;BME280;67071;51.144;17.050;2023-03-19T07:59:22;100391.76;;;12.37;49.07
77879;BME280;67071;51.144;17.050;2023-03-19T08:02:37;100391.87;;;12.44;48.66
77879;BME280;67071;51.144;17.050;2023-03-19T08:05:52;100393.37;;;12.60;48.28
77879;BME280;67071;51.144;17.050;2023-03-19T08:09:10;100379.77;;;12.79;47.92
77879;BME280;67071;51.144;17.050;2023-03-19T08:12:25;100384.01;;;12.91;47.56
77879;BME280;67071;51.144;17.050;2023-03-19T08:15:40;100387.30;;;13.07;47.24
77879;BME280;67071;51.144;17.050;2023-03-19T08:18:54;100383.72;;;13.26;46.96
77879;BME280;67071;51.144;17.050;2023-03-19T08:22:10;100374.98;;;13.41;46.66
77879;BME280;67071;51.144;17.050;2023-03-19T08:25:26;100373.59;;;13.79;46.44
77879;BME280;67071;51.144;17.050;2023-03-19T08:28:46;100376.74;;;14.07;46.18
77879;BME280;67071;51.144;17.050;2023-03-19T08:32:01;100384.08;;;14.32;45.89
77879;BME280;67071;51.144;17.050;2023-03-19T08:35:17;100383.50;;;14.52;45.51
77879;BME280;67071;51.144;17.050;2023-03-19T08:38:35;100387.88;;;14.69;45.08
77879;BME280;67071;51.144;17.050;2023-03-19T08:41:50;100371.61;;;14.86;44.61
77879;BME280;67071;51.144;17.050;2023-03-19T08:45:14;100365.02;;;15.20;44.18
77879;BME280;67071;51.144;17.050;2023-03-19T08:48:30;100366.60;;;15.46;43.72
77879;BME280;67071;51.144;17.050;2023-03-19T08:51:45;100376.01;;;15.88;43.35
77879;BME280;67071;51.144;17.050;2023-03-19T08:55:07;100370.65;;;16.07;42.81
77879;BME280;67071;51.144;17.050;2023-03-19T08:58:23;100374.43;;;16.33;42.19
77879;BME280;67071;51.144;17.050;2023-03-19T09:01:38;100368.77;;;16.61;41.67
77879;BME280;67071;51.144;17.050;2023-03-19T09:04:56;100363.90;;;16.80;41.31
77879;BME280;67071;51.144;17.050;2023-03-19T09:08:11;100357.84;;;16.88;40.82
77879;BME280;67071;51.144;17.050;2023-03-19T09:11:26;100363.67;;;17.06;40.32
77879;BME280;67071;51.144;17.050;2023-03-19T09:14:42;100372.89;;;17.25;39.79
77879;BME280;67071;51.144;17.050;2023-03-19T09:17:57;100366.76;;;17.74;39.56
77879;BME280;67071;51.144;17.050;2023-03-19T09:21:14;100360.03;;;18.02;39.11
77879;BME280;67071;51.144;17.050;2023-03-19T09:24:29;100359.28;;;18.31;38.50
77879;BME280;67071;51.144;17.050;2023-03-19T09:27:44;100357.99;;;18.50;38.02
77879;BME280;67071;51.144;17.050;2023-03-19T09:30:59;100351.95;;;18.76;37.68
77879;BME280;67071;51.144;17.050;2023-03-19T09:34:27;100354.65;;;18.93;37.33
77879;BME280;67071;51.144;17.050;2023-03-19T09:37:41;100354.65;;;18.93;36.81
77879;BME280;67071;51.144;17.050;2023-03-19T09:41:05;100357.67;;;18.69;36.08
77879;BME280;67071;51.144;17.050;2023-03-19T09:44:42;100364.71;;;18.76;35.62
77879;BME280;67071;51.144;17.050;2023-03-19T09:48:07;100362.23;;;19.01;35.38
77879;BME280;67071;51.144;17.050;2023-03-19T09:51:42;100340.66;;;19.28;35.11
77879;BME280;67071;51.144;17.050;2023-03-19T09:58:42;100336.20;;;20.01;34.62
77879;BME280;67071;51.144;17.050;2023-03-19T10:09:38;100331.07;;;20.84;33.52
77879;BME280;67071;51.144;17.050;2023-03-19T10:16:25;100317.52;;;21.11;32.68
77879;BME280;67071;51.144;17.050;2023-03-19T10:19:53;100312.23;;;21.24;32.28
77879;BME280;67071;51.144;17.050;2023-03-19T10:23:30;100308.41;;;21.27;31.96
77879;BME280;67071;51.144;17.050;2023-03-19T10:26:55;100312.95;;;21.46;31.73
77879;BME280;67071;51.144;17.050;2023-03-19T10:30:15;100302.20;;;21.36;31.29
77879;BME280;67071;51.144;17.050;2023-03-19T10:33:43;100309.50;;;21.49;31.23
77879;BME280;67071;51.144;17.050;2023-03-19T10:37:16;100317.61;;;21.43;31.04
77879;BME280;67071;51.144;17.050;2023-03-19T10:40:43;100320.15;;;21.42;30.68
77879;BME280;67071;51.144;17.050;2023-03-19T10:44:06;100305.72;;;21.83;30.75
77879;BME280;67071;51.144;17.050;2023-03-19T10:47:25;100297.41;;;22.27;30.73
77879;BME280;67071;51.144;17.050;2023-03-19T10:50:51;100297.77;;;22.40;30.08
77879;BME280;67071;51.144;17.050;2023-03-19T10:57:32;100291.81;;;22.45;29.23
77879;BME280;67071;51.144;17.050;2023-03-19T11:01:02;100294.92;;;22.36;29.02
77879;BME280;67071;51.144;17.050;2023-03-19T11:04:23;100297.03;;;22.82;28.98
77879;BME280;67071;51.144;17.050;2023-03-19T11:07:39;100298.47;;;23.37;28.78
77879;BME280;67071;51.144;17.050;2023-03-19T11:10:54;100289.98;;;23.96;28.65
77879;BME280;67071;51.144;17.050;2023-03-19T11:14:16;100286.93;;;24.55;28.30
77879;BME280;67071;51.144;17.050;2023-03-19T11:17:39;100282.24;;;24.99;27.46
77879;BME280;67071;51.144;17.050;2023-03-19T11:21:07;100284.69;;;25.13;26.66
77879;BME280;67071;51.144;17.050;2023-03-19T11:24:26;100281.61;;;24.86;26.14
77879;BME280;67071;51.144;17.050;2023-03-19T11:27:41;100282.21;;;24.67;25.93
77879;BME280;67071;51.144;17.050;2023-03-19T11:38:00;100274.76;;;24.90;25.78
77879;BME280;67071;51.144;17.050;2023-03-19T11:41:49;100270.29;;;25.78;25.56
77879;BME280;67071;51.144;17.050;2023-03-19T11:49:03;100264.80;;;27.14;23.89
77879;BME280;67071;51.144;17.050;2023-03-19T11:59:49;100255.12;;;27.99;23.44
77879;BME280;67071;51.144;17.050;2023-03-19T12:03:40;100248.23;;;28.63;22.66
77879;BME280;67071;51.144;17.050;2023-03-19T12:07:24;100235.73;;;29.65;22.10
77879;BME280;67071;51.144;17.050;2023-03-19T12:18:41;100248.74;;;29.14;21.46
77879;BME280;67071;51.144;17.050;2023-03-19T12:26:04;100257.12;;;28.48;22.12
77879;BME280;67071;51.144;17.050;2023-03-19T12:29:38;100255.23;;;28.20;22.21
77879;BME280;67071;51.144;17.050;2023-03-19T12:36:48;100244.79;;;28.03;22.28
77879;BME280;67071;51.144;17.050;2023-03-19T12:40:51;100243.21;;;28.04;22.29
77879;BME280;67071;51.144;17.050;2023-03-19T12:44:20;100241.64;;;27.47;22.17
77879;BME280;67071;51.144;17.050;2023-03-19T12:47:38;100245.16;;;27.38;22.42
77879;BME280;67071;51.144;17.050;2023-03-19T12:50:58;100240.02;;;27.46;22.48
77879;BME280;67071;51.144;17.050;2023-03-19T12:54:26;100232.54;;;27.51;22.59
77879;BME280;67071;51.144;17.050;2023-03-19T13:01:10;100227.99;;;27.60;22.59
77879;BME280;67071;51.144;17.050;2023-03-19T13:04:36;100230.15;;;28.25;22.58
77879;BME280;67071;51.144;17.050;2023-03-19T13:08:15;100223.43;;;28.35;22.34
77879;BME280;67071;51.144;17.050;2023-03-19T13:18:54;100227.66;;;30.53;20.88
77879;BME280;67071;51.144;17.050;2023-03-19T13:22:19;100227.98;;;31.49;20.16
77879;BME280;67071;51.144;17.050;2023-03-19T13:25:40;100226.41;;;31.45;19.80
77879;BME280;67071;51.144;17.050;2023-03-19T13:32:45;100230.99;;;31.47;19.14
77879;BME280;67071;51.144;17.050;2023-03-19T13:36:13;100219.00;;;30.23;19.18
77879;BME280;67071;51.144;17.050;2023-03-19T13:39:31;100222.45;;;30.55;19.56
77879;BME280;67071;51.144;17.050;2023-03-19T13:43:38;100214.05;;;30.15;19.58
77879;BME280;67071;51.144;17.050;2023-03-19T13:46:48;100213.21;;;28.97;19.78
77879;BME280;67071;51.144;17.050;2023-03-19T13:50:27;100218.97;;;28.72;20.17
77879;BME280;67071;51.144;17.050;2023-03-19T14:00:57;100212.41;;;28.86;20.44
77879;BME280;67071;51.144;17.050;2023-03-19T14:07:41;100205.41;;;28.08;20.58
77879;BME280;67071;51.144;17.050;2023-03-19T14:11:02;100204.03;;;27.72;21.03
77879;BME280;67071;51.144;17.050;2023-03-19T14:14:21;100202.14;;;27.32;21.41
77879;BME280;67071;51.144;17.050;2023-03-19T14:17:45;100203.03;;;26.74;21.63
77879;BME280;67071;51.144;17.050;2023-03-19T14:21:15;100198.19;;;26.68;21.79
77879;BME280;67071;51.144;17.050;2023-03-19T14:24:42;100198.12;;;26.42;22.00
77879;BME280;67071;51.144;17.050;2023-03-19T14:28:17;100201.35;;;26.31;22.31
77879;BME280;67071;51.144;17.050;2023-03-19T14:31:40;100195.56;;;26.27;22.46
77879;BME280;67071;51.144;17.050;2023-03-19T14:34:56;100196.52;;;25.80;22.50
77879;BME280;67071;51.144;17.050;2023-03-19T14:38:22;100197.70;;;25.12;22.76
77879;BME280;67071;51.144;17.050;2023-03-19T14:41:42;100198.23;;;24.76;23.10
77879;BME280;67071;51.144;17.050;2023-03-19T14:45:33;100192.70;;;24.45;23.36
77879;BME280;67071;51.144;17.050;2023-03-19T14:52:27;100186.13;;;23.75;24.11
77879;BME280;67071;51.144;17.050;2023-03-19T14:59:36;100195.80;;;23.48;24.92
77879;BME280;67071;51.144;17.050;2023-03-19T15:02:52;100195.20;;;23.56;25.11
77879;BME280;67071;51.144;17.050;2023-03-19T15:06:10;100189.91;;;23.77;25.20
77879;BME280;67071;51.144;17.050;2023-03-19T15:09:30;100195.03;;;23.94;25.31
77879;BME280;67071;51.144;17.050;2023-03-19T15:20:19;100182.60;;;26.06;24.59
77879;BME280;67071;51.144;17.050;2023-03-19T15:23:37;100198.48;;;26.98;23.70
77879;BME280;67071;51.144;17.050;2023-03-19T15:26:52;100193.25;;;27.69;23.13
77879;BME280;67071;51.144;17.050;2023-03-19T15:30:21;100196.59;;;27.97;22.47
77879;BME280;67071;51.144;17.050;2023-03-19T15:33:38;100197.89;;;27.80;22.05
77879;BME280;67071;51.144;17.050;2023-03-19T15:37:12;100196.80;;;27.11;21.93
77879;BME280;67071;51.144;17.050;2023-03-19T15:40:30;100193.50;;;26.37;22.05
77879;BME280;67071;51.144;17.050;2023-03-19T15:43:45;100199.87;;;25.37;22.53
77879;BME280;67071;51.144;17.050;2023-03-19T15:47:02;100201.36;;;24.53;23.18
77879;BME280;67071;51.144;17.050;2023-03-19T15:50:24;100206.14;;;23.68;23.73
77879;BME280;67071;51.144;17.050;2023-03-19T15:53:41;100205.12;;;23.09;24.28
77879;BME280;67071;51.144;17.050;2023-03-19T15:57:19;100210.42;;;22.49;24.89
77879;BME280;67071;51.144;17.050;2023-03-19T16:00:36;100209.66;;;22.07;25.40
77879;BME280;67071;51.144;17.050;2023-03-19T16:03:58;100214.05;;;21.70;25.88
77879;BME280;67071;51.144;17.050;2023-03-19T16:10:41;100215.25;;;21.03;27.28
77879;BME280;67071;51.144;17.050;2023-03-19T16:13:58;100211.33;;;20.81;27.70
77879;BME280;67071;51.144;17.050;2023-03-19T16:17:16;100216.34;;;20.61;28.04
77879;BME280;67071;51.144;17.050;2023-03-19T16:20:40;100208.34;;;20.46;28.55
77879;BME280;67071;51.144;17.050;2023-03-19T16:24:01;100221.61;;;20.32;28.88
77879;BME280;67071;51.144;17.050;2023-03-19T16:30:59;100220.40;;;20.00;29.69
77879;BME280;67071;51.144;17.050;2023-03-19T16:41:40;100228.38;;;19.14;30.53
77879;BME280;67071;51.144;17.050;2023-03-19T16:44:55;100228.91;;;18.88;30.94
77879;BME280;67071;51.144;17.050;2023-03-19T16:48:09;100231.87;;;18.66;31.47
77879;BME280;67071;51.144;17.050;2023-03-19T16:51:24;100231.59;;;18.51;32.08
77879;BME280;67071;51.144;17.050;2023-03-19T16:54:39;100239.45;;;18.21;32.42
77879;BME280;67071;51.144;17.050;2023-03-19T16:57:59;100231.72;;;17.93;33.00
77879;BME280;67071;51.144;17.050;2023-03-19T17:01:24;100234.99;;;17.71;33.59
77879;BME280;67071;51.144;17.050;2023-03-19T17:04:39;100235.15;;;17.42;33.81
77879;BME280;67071;51.144;17.050;2023-03-19T17:07:57;100237.16;;;17.11;34.01
77879;BME280;67071;51.144;17.050;2023-03-19T17:11:36;100239.68;;;16.94;34.41
77879;BME280;67071;51.144;17.050;2023-03-19T17:14:53;100247.07;;;16.78;34.82
77879;BME280;67071;51.144;17.050;2023-03-19T17:21:54;100256.57;;;16.21;35.29
77879;BME280;67071;51.144;17.050;2023-03-19T17:25:14;100255.73;;;15.94;35.50
77879;BME280;67071;51.144;17.050;2023-03-19T17:28:31;100258.29;;;15.84;35.79
77879;BME280;67071;51.144;17.050;2023-03-19T17:31:46;100254.80;;;15.74;36.04
77879;BME280;67071;51.144;17.050;2023-03-19T17:35:02;100263.68;;;15.69;36.39
77879;BME280;67071;51.144;17.050;2023-03-19T17:38:17;100258.49;;;15.56;36.60
77879;BME280;67071;51.144;17.050;2023-03-19T17:41:34;100260.62;;;15.52;37.06
77879;BME280;67071;51.144;17.050;2023-03-19T17:44:52;100258.21;;;15.42;37.46
77879;BME280;67071;51.144;17.050;2023-03-19T17:48:21;100268.91;;;15.20;37.58
77879;BME280;67071;51.144;17.050;2023-03-19T17:51:36;100272.43;;;14.94;37.62
77879;BME280;67071;51.144;17.050;2023-03-19T17:54:54;100268.71;;;14.80;37.75
77879;BME280;67071;51.144;17.050;2023-03-19T17:58:16;100263.95;;;14.72;37.97
77879;BME280;67071;51.144;17.050;2023-03-19T18:01:32;100265.04;;;14.64;38.20
77879;BME280;67071;51.144;17.050;2023-03-19T18:04:46;100264.47;;;14.58;38.50
77879;BME280;67071;51.144;17.050;2023-03-19T18:08:01;100271.70;;;14.58;39.01
77879;BME280;67071;51.144;17.050;2023-03-19T18:11:16;100270.95;;;14.55;39.42
77879;BME280;67071;51.144;17.050;2023-03-19T18:14:33;100272.42;;;14.48;39.76
77879;BME280;67071;51.144;17.050;2023-03-19T18:17:50;100266.87;;;14.27;39.83
77879;BME280;67071;51.144;17.050;2023-03-19T18:24:29;100280.00;;;13.88;39.99
77879;BME280;67071;51.144;17.050;2023-03-19T18:27:47;100272.05;;;13.73;40.27
77879;BME280;67071;51.144;17.050;2023-03-19T18:31:03;100274.54;;;13.51;40.70
77879;BME280;67071;51.144;17.050;2023-03-19T18:34:18;100271.18;;;13.35;41.08
77879;BME280;67071;51.144;17.050;2023-03-19T18:37:35;100277.16;;;13.14;41.46
77879;BME280;67071;51.144;17.050;2023-03-19T18:40:51;100274.32;;;12.98;41.82
77879;BME280;67071;51.144;17.050;2023-03-19T18:44:07;100272.46;;;12.81;42.18
77879;BME280;67071;51.144;17.050;2023-03-19T18:47:24;100275.73;;;12.66;42.56
77879;BME280;67071;51.144;17.050;2023-03-19T18:50:39;100279.92;;;12.54;42.93
77879;BME280;67071;51.144;17.050;2023-03-19T18:53:54;100272.88;;;12.50;43.28
77879;BME280;67071;51.144;17.050;2023-03-19T18:57:15;100278.14;;;12.39;43.57
77879;BME280;67071;51.144;17.050;2023-03-19T19:00:32;100275.96;;;12.24;43.87
77879;BME280;67071;51.144;17.050;2023-03-19T19:03:48;100286.23;;;12.11;44.20
77879;BME280;67071;51.144;17.050;2023-03-19T19:07:06;100290.38;;;12.00;44.55
77879;BME280;67071;51.144;17.050;2023-03-19T19:10:31;100297.64;;;11.93;44.87
77879;BME280;67071;51.144;17.050;2023-03-19T19:13:50;100294.94;;;11.88;45.14
77879;BME280;67071;51.144;17.050;2023-03-19T19:17:17;100298.78;;;11.80;45.41
77879;BME280;67071;51.144;17.050;2023-03-19T19:20:38;100297.36;;;11.68;45.70